createdAt,value
2023-04-07T00:00:42.581Z,101378.13
2023-04-07T00:03:44.422Z,101376.47
2023-04-07T00:06:46.148Z,101376.59
2023-04-07T00:09:47.719Z,101382.88
2023-04-07T00:12:49.262Z,101368.19
2023-04-07T00:15:50.873Z,101372.72
2023-04-07T00:18:52.546Z,101383.31
2023-04-07T00:21:54.444Z,101376.31
2023-04-07T00:24:56.024Z,101371.03
2023-04-07T00:27:57.886Z,101366.66
2023-04-07T00:30:59.479Z,101374.59
2023-04-07T00:34:01.151Z,101373.81
2023-04-07T00:37:02.761Z,101377.41
2023-04-07T00:40:05.195Z,101377.53
2023-04-07T00:43:06.810Z,101373.38
2023-04-07T00:46:08.509Z,101365.66
2023-04-07T00:49:11.342Z,101371.97
2023-04-07T00:52:14.650Z,101367.72
2023-04-07T00:55:16.302Z,101366.06
2023-04-07T00:58:18.014Z,101376.75
2023-04-07T01:01:24.915Z,101382.97
2023-04-07T01:04:26.465Z,101381.41
2023-04-07T01:07:36.613Z,101374.63
2023-04-07T01:10:50.091Z,101382.75
2023-04-07T01:13:54.405Z,101383.78
2023-04-07T01:16:59.830Z,101376.84
2023-04-07T01:20:08.003Z,101374.25
2023-04-07T01:23:17.790Z,101375.22
2023-04-07T01:26:23.292Z,101390.19
2023-04-07T01:29:44.780Z,101373.72
2023-04-07T01:32:51.877Z,101382.63
2023-04-07T01:35:55.183Z,101378.41
2023-04-07T01:38:59.042Z,101382.03
2023-04-07T01:42:04.544Z,101385.56
2023-04-07T01:45:07.817Z,101377.72
2023-04-07T01:48:09.852Z,101373.34
2023-04-07T01:54:17.861Z,101381.41
2023-04-07T01:57:19.399Z,101384.94
2023-04-07T02:00:21.233Z,101380.53
2023-04-07T02:03:34.846Z,101380.59
2023-04-07T02:06:43.416Z,101374.47
2023-04-07T02:09:48.361Z,101374.59
2023-04-07T02:12:50.037Z,101378.13
2023-04-07T02:15:54.766Z,101372.03
2023-04-07T02:18:56.778Z,101370.38
2023-04-07T02:22:01.450Z,101370.50
2023-04-07T02:25:03.058Z,101360.00
2023-04-07T02:28:06.014Z,101362.69
2023-04-07T02:31:07.615Z,101357.50
2023-04-07T02:34:09.384Z,101364.59
2023-04-07T02:37:11.038Z,101361.22
2023-04-07T02:40:13.264Z,101372.69
2023-04-07T02:43:14.970Z,101381.59
2023-04-07T02:46:16.783Z,101386.94
2023-04-07T02:49:18.374Z,101380.88
2023-04-07T02:52:19.903Z,101375.69
2023-04-07T02:55:21.486Z,101380.13
2023-04-07T02:58:23.068Z,101392.44
2023-04-07T03:01:24.662Z,101392.56
2023-04-07T03:04:26.525Z,101388.19
2023-04-07T03:07:28.375Z,101385.53
2023-04-07T03:10:29.943Z,101383.91
2023-04-07T03:13:32.327Z,101380.50
2023-04-07T03:16:33.947Z,101393.72
2023-04-07T03:19:35.525Z,101386.88
2023-04-07T03:22:37.091Z,101386.09
2023-04-07T03:25:38.693Z,101380.03
2023-04-07T03:28:40.579Z,101384.44
2023-04-07T03:31:42.192Z,101380.97
2023-04-07T03:34:43.784Z,101374.94
2023-04-07T03:37:45.428Z,101375.81
2023-04-07T03:40:47.173Z,101379.34
2023-04-07T03:43:48.706Z,101382.03
2023-04-07T03:46:50.816Z,101386.56
2023-04-07T03:49:52.331Z,101383.19
2023-04-07T03:52:53.899Z,101384.16
2023-04-07T03:55:55.511Z,101386.91
2023-04-07T03:58:57.215Z,101397.50
2023-04-07T04:01:58.963Z,101390.56
2023-04-07T04:05:00.623Z,101393.31
2023-04-07T04:08:02.189Z,101392.50
2023-04-07T04:11:03.756Z,101399.63
2023-04-07T04:14:06.586Z,101400.56
2023-04-07T04:17:08.143Z,101401.50
2023-04-07T04:20:10.260Z,101407.75
2023-04-07T04:23:11.811Z,101408.75
2023-04-07T04:26:13.408Z,101419.31
2023-04-07T04:29:15.027Z,101414.13
2023-04-07T04:32:17.913Z,101414.16
2023-04-07T04:35:19.634Z,101420.38
2023-04-07T04:38:21.302Z,101424.72
2023-04-07T04:41:22.860Z,101420.41
2023-04-07T04:44:24.462Z,101424.00
2023-04-07T04:47:26.228Z,101427.56
2023-04-07T04:50:27.775Z,101443.34
2023-04-07T04:53:29.449Z,101437.22
2023-04-07T04:56:31.020Z,101439.88
2023-04-07T04:59:32.558Z,101439.06
2023-04-07T05:02:34.397Z,101437.31
2023-04-07T05:05:36.243Z,101448.69
2023-04-07T05:08:37.796Z,101448.69
2023-04-07T05:11:41.260Z,101454.78
2023-04-07T05:14:42.814Z,101453.91
2023-04-07T05:17:44.486Z,101464.34
2023-04-07T05:20:48.560Z,101465.19
2023-04-07T05:23:50.362Z,101466.00
2023-04-07T05:26:52.090Z,101464.16
2023-04-07T05:29:53.651Z,101465.78
2023-04-07T05:32:55.379Z,101464.81
2023-04-07T05:35:56.968Z,101468.16
2023-04-07T05:38:58.584Z,101481.13
2023-04-07T05:42:02.195Z,101480.19
2023-04-07T05:45:04.808Z,101478.22
2023-04-07T05:48:06.595Z,101481.53
2023-04-07T05:51:08.234Z,101480.41
2023-04-07T05:54:09.814Z,101484.53
2023-04-07T05:57:11.432Z,101489.56
2023-04-07T06:00:13.918Z,101490.25
2023-04-07T06:03:15.596Z,101491.91
2023-04-07T06:06:17.160Z,101504.97
2023-04-07T06:09:18.672Z,101505.66
2023-04-07T06:12:20.504Z,101508.16
2023-04-07T06:15:22.094Z,101511.53
2023-04-07T06:18:23.799Z,101516.59
2023-04-07T06:21:27.436Z,101516.47
2023-04-07T06:24:28.991Z,101521.53
2023-04-07T06:27:30.710Z,101525.66
2023-04-07T06:30:32.298Z,101521.97
2023-04-07T06:33:33.902Z,101531.47
2023-04-07T06:36:35.672Z,101529.56
2023-04-07T06:39:38.333Z,101539.00
2023-04-07T06:42:39.945Z,101536.09
2023-04-07T06:45:41.565Z,101543.72
2023-04-07T06:48:43.218Z,101545.22
2023-04-07T06:51:44.910Z,101556.34
2023-04-07T06:54:46.715Z,101549.88
2023-04-07T06:57:48.391Z,101548.78
2023-04-07T07:00:50.032Z,101553.81
2023-04-07T07:03:51.982Z,101555.28
2023-04-07T07:06:56.053Z,101569.06
2023-04-07T07:09:57.577Z,101560.72
2023-04-07T07:12:59.114Z,101568.16
2023-04-07T07:16:01.327Z,101570.38
2023-04-07T07:19:03.007Z,101567.22
2023-04-07T07:22:04.829Z,101576.25
2023-04-07T07:25:06.738Z,101572.13
2023-04-07T07:28:09.355Z,101578.56
2023-04-07T07:31:13.247Z,101574.44
2023-04-07T07:34:14.950Z,101590.56
2023-04-07T07:37:16.642Z,101590.16
2023-04-07T07:40:18.637Z,101594.03
2023-04-07T07:43:20.402Z,101592.63
2023-04-07T07:46:23.796Z,101600.97
2023-04-07T07:49:25.529Z,101602.44
2023-04-07T07:52:27.173Z,101608.31
2023-04-07T07:55:29.305Z,101605.25
2023-04-07T07:58:30.982Z,101612.91
2023-04-07T08:01:32.858Z,101618.97
2023-04-07T08:04:35.712Z,101620.47
2023-04-07T08:07:37.757Z,101625.59
2023-04-07T08:10:39.386Z,101628.81
2023-04-07T08:13:45.440Z,101620.53
2023-04-07T08:16:47.579Z,101621.19
2023-04-07T08:19:49.192Z,101629.63
2023-04-07T08:22:51.152Z,101631.00
2023-04-07T08:25:52.729Z,101632.34
2023-04-07T08:28:56.040Z,101626.66
2023-04-07T08:31:57.635Z,101637.47
2023-04-07T08:34:59.210Z,101636.16
2023-04-07T08:38:00.755Z,101629.31
2023-04-07T08:41:10.539Z,101637.09
2023-04-07T08:44:13.538Z,101643.59
2023-04-07T08:47:17.810Z,101650.97
2023-04-07T08:50:19.833Z,101647.19
2023-04-07T08:53:28.246Z,101646.91
2023-04-07T08:56:31.027Z,101643.84
2023-04-07T08:59:33.799Z,101641.53
2023-04-07T09:02:38.978Z,101657.97
2023-04-07T09:05:40.902Z,101659.63
2023-04-07T09:08:42.426Z,101653.31
2023-04-07T09:11:44.303Z,101652.22
2023-04-07T09:14:46.094Z,101649.19
2023-04-07T09:17:48.458Z,101658.53
2023-04-07T09:21:01.956Z,101654.41
2023-04-07T09:24:21.486Z,101652.38
2023-04-07T09:27:23.204Z,101652.13
2023-04-07T09:30:25.373Z,101661.03
2023-04-07T09:33:28.357Z,101654.69
2023-04-07T09:36:42.331Z,101655.88
2023-04-07T09:39:53.948Z,101661.53
2023-04-07T09:42:55.764Z,101664.59
2023-04-07T09:46:08.530Z,101657.25
2023-04-07T09:49:10.146Z,101656.00
2023-04-07T09:52:11.709Z,101658.03
2023-04-07T09:55:14.613Z,101667.19
2023-04-07T09:58:17.066Z,101666.69
2023-04-07T10:01:20.640Z,101666.22
2023-04-07T10:04:23.412Z,101671.84
2023-04-07T10:07:25.830Z,101658.03
2023-04-07T10:10:28.746Z,101661.88
2023-04-07T10:13:35.498Z,101654.16
2023-04-07T10:16:40.563Z,101659.69
2023-04-07T10:19:42.204Z,101649.38
2023-04-07T10:22:46.675Z,101651.13
2023-04-07T10:25:52.571Z,101658.59
2023-04-07T10:29:00.825Z,101648.75
2023-04-07T10:32:03.605Z,101657.94
2023-04-07T10:35:06.624Z,101665.13
2023-04-07T10:38:08.353Z,101672.41
2023-04-07T10:41:33.913Z,101669.16
2023-04-07T10:44:38.463Z,101672.69
2023-04-07T10:48:10.993Z,101673.59
2023-04-07T10:51:15.416Z,101666.63
2023-04-07T10:54:23.183Z,101672.78
2023-04-07T10:57:24.964Z,101673.03
2023-04-07T11:00:26.532Z,101674.47
2023-04-07T11:03:30.197Z,101675.91
2023-04-07T11:06:32.238Z,101679.28
2023-04-07T11:09:34.523Z,101679.16
2023-04-07T11:12:36.266Z,101680.22
2023-04-07T11:15:40.335Z,101681.94
2023-04-07T11:18:43.281Z,101677.25
2023-04-07T11:21:44.978Z,101684.91
2023-04-07T11:24:47.337Z,101680.34
2023-04-07T11:27:49.233Z,101676.72
2023-04-07T11:30:52.850Z,101679.13
2023-04-07T11:33:56.413Z,101680.56
2023-04-07T11:37:02.044Z,101678.47
2023-04-07T11:40:04.001Z,101703.91
2023-04-07T11:43:17.344Z,101692.13
2023-04-07T11:46:19.260Z,101700.03
2023-04-07T11:49:21.557Z,101684.94
2023-04-07T11:52:23.230Z,101683.13
2023-04-07T11:55:24.791Z,101685.72
2023-04-07T11:58:26.618Z,101681.22
2023-04-07T12:01:40.920Z,101691.25
2023-04-07T12:04:57.353Z,101697.00
2023-04-07T12:07:59.084Z,101690.47
2023-04-07T12:11:05.218Z,101700.06
2023-04-07T12:14:07.107Z,101708.81
2023-04-07T12:17:20.651Z,101703.78
2023-04-07T12:20:22.277Z,101701.47
2023-04-07T12:23:23.885Z,101705.00
2023-04-07T12:26:25.728Z,101697.84
2023-04-07T12:29:27.892Z,101704.06
2023-04-07T12:32:29.600Z,101705.94
2023-04-07T12:35:31.324Z,101693.63
2023-04-07T12:38:32.988Z,101700.53
2023-04-07T12:41:35.213Z,101710.63
2023-04-07T12:44:37.316Z,101710.53
2023-04-07T12:47:38.888Z,101702.78
2023-04-07T12:50:40.562Z,101705.56
2023-04-07T12:53:42.195Z,101706.34
2023-04-07T12:56:43.758Z,101709.88
2023-04-07T12:59:45.361Z,101713.41
2023-04-07T13:02:47.260Z,101709.88
2023-04-07T13:05:49.394Z,101713.31
2023-04-07T13:08:51.802Z,101713.50
2023-04-07T13:11:53.400Z,101707.19
2023-04-07T13:15:00.064Z,101716.09
2023-04-07T13:18:02.282Z,101714.34
2023-04-07T13:24:08.744Z,101708.03
2023-04-07T13:27:10.869Z,101708.91
2023-04-07T13:30:13.659Z,101711.69
2023-04-07T13:33:15.276Z,101702.03
2023-04-07T13:36:16.889Z,101701.47
2023-04-07T13:39:18.477Z,101713.28
2023-04-07T13:42:21.002Z,101714.31
2023-04-07T13:45:22.557Z,101720.44
2023-04-07T13:48:24.149Z,101719.75
2023-04-07T13:51:25.722Z,101707.56
2023-04-07T13:54:27.365Z,101706.88
2023-04-07T13:57:28.965Z,101708.50
2023-04-07T14:00:30.679Z,101710.88
2023-04-07T14:03:32.937Z,101709.84
2023-04-07T14:06:36.670Z,101705.38
2023-04-07T14:09:38.441Z,101700.97
2023-04-07T14:12:40.400Z,101702.81
2023-04-07T14:15:41.974Z,101691.25
2023-04-07T14:18:44.483Z,101699.84
2023-04-07T14:21:46.187Z,101702.50
2023-04-07T14:24:47.720Z,101704.44
2023-04-07T14:27:49.543Z,101696.47
2023-04-07T14:30:51.590Z,101694.78
2023-04-07T14:33:53.207Z,101707.28
2023-04-07T14:36:56.383Z,101705.81
2023-04-07T14:43:07.283Z,101704.31
2023-04-07T14:46:09.289Z,101709.66
2023-04-07T14:49:11.054Z,101711.47
2023-04-07T14:52:14.181Z,101706.56
2023-04-07T14:55:16.284Z,101714.19
2023-04-07T14:58:17.903Z,101713.53
2023-04-07T15:01:19.512Z,101717.13
2023-04-07T15:04:21.186Z,101719.97
2023-04-07T15:07:22.950Z,101722.75
2023-04-07T15:10:24.604Z,101715.78
2023-04-07T15:13:26.156Z,101720.19
2023-04-07T15:16:27.734Z,101722.06
2023-04-07T15:19:29.931Z,101726.63
2023-04-07T15:22:31.529Z,101728.53
2023-04-07T15:25:33.068Z,101723.38
2023-04-07T15:28:34.908Z,101723.53
2023-04-07T15:31:36.460Z,101728.22
2023-04-07T15:34:38.153Z,101732.09
2023-04-07T15:37:39.715Z,101726.06
2023-04-07T15:40:41.512Z,101735.09
2023-04-07T15:43:43.230Z,101733.41
2023-04-07T15:46:44.974Z,101735.22
2023-04-07T15:49:46.614Z,101737.97
2023-04-07T15:52:48.316Z,101737.25
2023-04-07T15:55:49.881Z,101741.72
2023-04-07T15:58:51.622Z,101750.56
2023-04-07T16:01:53.921Z,101755.88
2023-04-07T16:04:55.522Z,101751.63
2023-04-07T16:07:57.214Z,101755.50
2023-04-07T16:10:59.011Z,101753.25
2023-04-07T16:14:00.656Z,101750.97
2023-04-07T16:17:02.415Z,101755.59
2023-04-07T16:20:04.574Z,101761.97
2023-04-07T16:23:06.175Z,101762.22
2023-04-07T16:26:07.768Z,101749.06
2023-04-07T16:29:09.302Z,101764.22
2023-04-07T16:32:11.096Z,101754.47
2023-04-07T16:35:16.135Z,101764.38
2023-04-07T16:38:17.682Z,101769.09
2023-04-07T16:41:20.223Z,101765.13
2023-04-07T16:44:23.011Z,101774.31
2023-04-07T16:47:26.237Z,101769.34
2023-04-07T16:50:30.978Z,101773.88
2023-04-07T16:53:32.550Z,101781.19
2023-04-07T16:56:34.099Z,101780.72
2023-04-07T16:59:35.955Z,101792.66
2023-04-07T17:02:37.930Z,101788.28
2023-04-07T17:05:40.199Z,101796.34
2023-04-07T17:08:42.062Z,101794.94
2023-04-07T17:11:43.596Z,101806.09
2023-04-07T17:14:45.339Z,101814.53
2023-04-07T17:17:46.972Z,101815.91
2023-04-07T17:20:56.237Z,101819.94
2023-04-07T17:23:57.827Z,101822.44
2023-04-07T17:26:59.376Z,101827.34
2023-04-07T17:30:00.958Z,101837.44
2023-04-07T17:33:03.745Z,101845.72
2023-04-07T17:36:05.420Z,101857.53
2023-04-07T17:39:07.056Z,101849.78
2023-04-07T17:42:11.200Z,101858.97
2023-04-07T17:45:12.917Z,101863.81
2023-04-07T17:48:14.603Z,101865.03
2023-04-07T17:51:18.492Z,101875.88
2023-04-07T17:54:20.062Z,101879.09
2023-04-07T17:57:21.650Z,101878.81
2023-04-07T18:00:23.707Z,101885.59
2023-04-07T18:03:25.745Z,101888.81
2023-04-07T18:06:28.568Z,101894.50
2023-04-07T18:09:30.597Z,101897.63
2023-04-07T18:12:32.236Z,101895.06
2023-04-07T18:15:33.935Z,101903.47
2023-04-07T18:18:38.107Z,101906.47
2023-04-07T18:21:39.679Z,101921.81
2023-04-07T18:24:41.218Z,101917.69
2023-04-07T18:27:42.997Z,101922.44
2023-04-07T18:30:44.821Z,101922.88
2023-04-07T18:33:46.413Z,101931.22
2023-04-07T18:36:48.477Z,101942.22
2023-04-07T18:39:50.280Z,101953.06
2023-04-07T18:42:52.013Z,101958.63
2023-04-07T18:45:54.274Z,101964.91
2023-04-07T18:48:55.865Z,101968.59
2023-04-07T18:51:57.626Z,101967.19
2023-04-07T18:54:59.258Z,101969.41
2023-04-07T18:58:00.873Z,101969.00
2023-04-07T19:01:02.645Z,101972.94
2023-04-07T19:04:04.535Z,101982.19
2023-04-07T19:07:06.303Z,101990.41
2023-04-07T19:10:09.249Z,101985.22
2023-04-07T19:13:11.059Z,101989.75
2023-04-07T19:16:12.745Z,101992.56
2023-04-07T19:19:14.420Z,101985.84
2023-04-07T19:22:16.584Z,101990.56
2023-04-07T19:25:18.095Z,101996.06
2023-04-07T19:28:19.711Z,102001.56
2023-04-07T19:31:21.273Z,102010.72
2023-04-07T19:34:23.181Z,102014.41
2023-04-07T19:37:24.746Z,102018.13
2023-04-07T19:40:26.474Z,102022.72
2023-04-07T19:43:28.021Z,102021.25
2023-04-07T19:46:29.731Z,102028.59
2023-04-07T19:49:31.627Z,102035.00
2023-04-07T19:52:33.241Z,102036.97
2023-04-07T19:55:34.788Z,102028.44
2023-04-07T19:58:38.449Z,102034.25
2023-04-07T20:01:40.231Z,102042.56
2023-04-07T20:04:41.942Z,102042.88
2023-04-07T20:07:44.227Z,102034.31
2023-04-07T20:10:45.800Z,102042.47
2023-04-07T20:13:48.441Z,102035.59
2023-04-07T20:16:50.044Z,102044.59
2023-04-07T20:19:54.637Z,102051.78
2023-04-07T20:22:56.266Z,102046.63
2023-04-07T20:25:57.830Z,102052.13
2023-04-07T20:28:59.450Z,102061.06
2023-04-07T20:32:01.164Z,102055.03
2023-04-07T20:35:03.945Z,102061.25
2023-04-07T20:38:06.058Z,102059.56
2023-04-07T20:41:11.718Z,102058.00
2023-04-07T20:44:13.324Z,102060.78
2023-04-07T20:47:14.967Z,102076.78
2023-04-07T20:50:17.042Z,102068.97
2023-04-07T20:53:19.691Z,102077.81
2023-04-07T20:56:21.784Z,102075.28
2023-04-07T20:59:23.399Z,102075.28
2023-04-07T21:02:25.165Z,102071.78
2023-04-07T21:05:28.330Z,102081.53
2023-04-07T21:08:29.927Z,102076.31
2023-04-07T21:11:31.570Z,102075.50
2023-04-07T21:14:33.195Z,102077.28
2023-04-07T21:17:34.890Z,102079.94
2023-04-07T21:20:37.557Z,102080.81
2023-04-07T21:23:39.173Z,102073.78
2023-04-07T21:26:40.908Z,102081.69
2023-04-07T21:29:42.644Z,102080.78
2023-04-07T21:32:47.145Z,102078.94
2023-04-07T21:35:49.658Z,102083.38
2023-04-07T21:38:52.362Z,102079.94
2023-04-07T21:41:53.966Z,102085.22
2023-04-07T21:44:55.826Z,102084.34
2023-04-07T21:47:57.418Z,102091.31
2023-04-07T21:50:59.044Z,102086.84
2023-04-07T21:54:00.940Z,102090.38
2023-04-07T21:57:02.493Z,102083.38
2023-04-07T22:00:05.208Z,102087.78
2023-04-07T22:03:07.461Z,102091.31
2023-04-07T22:06:09.361Z,102085.22
2023-04-07T22:09:11.158Z,102096.59
2023-04-07T22:12:12.697Z,102098.41
2023-04-07T22:15:14.328Z,102099.31
2023-04-07T22:18:16.103Z,102102.81
2023-04-07T22:21:17.949Z,102095.78
2023-04-07T22:24:19.500Z,102102.00
2023-04-07T22:27:21.169Z,102102.88
2023-04-07T22:30:24.556Z,102105.47
2023-04-07T22:33:26.197Z,102108.97
2023-04-07T22:36:28.032Z,102107.22
2023-04-07T22:39:29.671Z,102102.00
2023-04-07T22:42:31.243Z,102096.72
2023-04-07T22:45:32.833Z,102105.47
2023-04-07T22:48:34.454Z,102104.63
2023-04-07T22:51:36.589Z,102096.72
2023-04-07T22:54:38.138Z,102109.06
2023-04-07T22:57:39.714Z,102109.09
2023-04-07T23:00:41.367Z,102106.50
2023-04-07T23:03:43.049Z,102109.16
2023-04-07T23:06:44.681Z,102104.69
2023-04-07T23:09:46.692Z,102109.06
2023-04-07T23:12:48.270Z,102107.28
2023-04-07T23:15:49.916Z,102114.25
2023-04-07T23:18:51.843Z,102118.66
2023-04-07T23:21:53.886Z,102124.75
2023-04-07T23:24:56.855Z,102121.28
2023-04-07T23:27:58.402Z,102126.56
2023-04-07T23:30:59.993Z,102131.81
2023-04-07T23:34:01.542Z,102124.81
2023-04-07T23:37:03.298Z,102126.53
2023-04-07T23:40:06.627Z,102119.47
2023-04-07T23:43:08.229Z,102120.38
2023-04-07T23:46:09.831Z,102113.38
2023-04-07T23:49:11.630Z,102126.63
2023-04-07T23:52:13.210Z,102113.50
2023-04-07T23:55:14.829Z,102115.25
2023-04-07T23:58:16.719Z,102118.78
